sensor_id;sensor_type;location;lat;lon;timestamp;P1;durP1;ratioP1;P2;durP2;ratioP2
14116;SDS011;7137;51.436;6.544;2023-04-20T00:02:26;5.43;;;2.73;;
14116;SDS011;7137;51.436;6.544;2023-04-20T00:05:27;4.97;;;2.90;;
14116;SDS011;7137;51.436;6.544;2023-04-20T00:08:30;5.80;;;3.10;;
14116;SDS011;7137;51.436;6.544;2023-04-20T00:11:32;5.80;;;2.97;;
14116;SDS011;7137;51.436;6.544;2023-04-20T00:14:35;6.07;;;2.77;;
14116;SDS011;7137;51.436;6.544;2023-04-20T00:17:36;5.97;;;2.97;;
14116;SDS011;7137;51.436;6.544;2023-04-20T00:20:38;4.03;;;2.60;;
14116;SDS011;7137;51.436;6.544;2023-04-20T00:23:40;5.10;;;2.90;;
14116;SDS011;7137;51.436;6.544;2023-04-20T00:26:41;4.37;;;2.83;;
14116;SDS011;7137;51.436;6.544;2023-04-20T00:29:44;6.77;;;2.83;;
14116;SDS011;7137;51.436;6.544;2023-04-20T00:32:46;6.83;;;3.10;;
14116;SDS011;7137;51.436;6.544;2023-04-20T00:35:47;8.63;;;3.10;;
14116;SDS011;7137;51.436;6.544;2023-04-20T00:38:49;6.30;;;3.00;;
14116;SDS011;7137;51.436;6.544;2023-04-20T00:41:50;5.00;;;2.93;;
14116;SDS011;7137;51.436;6.544;2023-04-20T00:44:53;5.57;;;2.80;;
14116;SDS011;7137;51.436;6.544;2023-04-20T00:47:54;5.03;;;2.80;;
14116;SDS011;7137;51.436;6.544;2023-04-20T00:50:56;6.07;;;3.00;;
14116;SDS011;7137;51.436;6.544;2023-04-20T00:53:57;5.20;;;2.80;;
14116;SDS011;7137;51.436;6.544;2023-04-20T00:57:00;4.70;;;2.50;;
14116;SDS011;7137;51.436;6.544;2023-04-20T01:00:03;4.60;;;2.53;;
14116;SDS011;7137;51.436;6.544;2023-04-20T01:03:06;6.03;;;2.73;;
14116;SDS011;7137;51.436;6.544;2023-04-20T01:06:08;5.50;;;2.60;;
14116;SDS011;7137;51.436;6.544;2023-04-20T01:09:10;4.70;;;2.23;;
14116;SDS011;7137;51.436;6.544;2023-04-20T01:12:12;5.27;;;2.50;;
14116;SDS011;7137;51.436;6.544;2023-04-20T01:15:15;8.67;;;2.30;;
14116;SDS011;7137;51.436;6.544;2023-04-20T01:18:16;5.77;;;2.70;;
14116;SDS011;7137;51.436;6.544;2023-04-20T01:21:19;6.27;;;2.63;;
14116;SDS011;7137;51.436;6.544;2023-04-20T01:24:22;6.53;;;2.90;;
14116;SDS011;7137;51.436;6.544;2023-04-20T01:27:24;8.03;;;3.13;;
14116;SDS011;7137;51.436;6.544;2023-04-20T01:30:25;5.67;;;2.80;;
14116;SDS011;7137;51.436;6.544;2023-04-20T01:33:27;4.60;;;2.47;;
14116;SDS011;7137;51.436;6.544;2023-04-20T01:36:28;5.30;;;2.50;;
14116;SDS011;7137;51.436;6.544;2023-04-20T01:39:32;4.67;;;2.20;;
14116;SDS011;7137;51.436;6.544;2023-04-20T01:42:35;6.23;;;2.70;;
14116;SDS011;7137;51.436;6.544;2023-04-20T01:49:33;6.47;;;2.57;;
14116;SDS011;7137;51.436;6.544;2023-04-20T01:52:34;6.60;;;2.87;;
14116;SDS011;7137;51.436;6.544;2023-04-20T01:55:37;4.67;;;2.50;;
14116;SDS011;7137;51.436;6.544;2023-04-20T01:58:39;5.77;;;2.50;;
14116;SDS011;7137;51.436;6.544;2023-04-20T02:01:40;5.13;;;2.67;;
14116;SDS011;7137;51.436;6.544;2023-04-20T02:04:42;4.67;;;2.70;;
14116;SDS011;7137;51.436;6.544;2023-04-20T02:07:43;7.40;;;3.03;;
14116;SDS011;7137;51.436;6.544;2023-04-20T02:10:46;8.50;;;2.80;;
14116;SDS011;7137;51.436;6.544;2023-04-20T02:13:47;8.07;;;2.80;;
14116;SDS011;7137;51.436;6.544;2023-04-20T02:16:49;5.30;;;2.63;;
14116;SDS011;7137;51.436;6.544;2023-04-20T02:19:52;5.67;;;2.67;;
14116;SDS011;7137;51.436;6.544;2023-04-20T02:22:53;4.47;;;2.77;;
14116;SDS011;7137;51.436;6.544;2023-04-20T02:25:56;7.53;;;3.30;;
14116;SDS011;7137;51.436;6.544;2023-04-20T02:28:58;6.87;;;2.90;;
14116;SDS011;7137;51.436;6.544;2023-04-20T02:31:59;6.23;;;2.83;;
14116;SDS011;7137;51.436;6.544;2023-04-20T02:35:01;4.53;;;2.60;;
14116;SDS011;7137;51.436;6.544;2023-04-20T02:38:03;4.77;;;2.40;;
14116;SDS011;7137;51.436;6.544;2023-04-20T02:41:06;7.00;;;2.60;;
14116;SDS011;7137;51.436;6.544;2023-04-20T02:44:07;5.83;;;2.73;;
14116;SDS011;7137;51.436;6.544;2023-04-20T02:47:08;5.17;;;2.70;;
14116;SDS011;7137;51.436;6.544;2023-04-20T02:50:10;4.70;;;2.67;;
14116;SDS011;7137;51.436;6.544;2023-04-20T02:53:11;9.00;;;2.83;;
14116;SDS011;7137;51.436;6.544;2023-04-20T02:56:14;4.67;;;2.70;;
14116;SDS011;7137;51.436;6.544;2023-04-20T02:59:16;6.53;;;2.67;;
14116;SDS011;7137;51.436;6.544;2023-04-20T03:02:17;5.53;;;2.53;;
14116;SDS011;7137;51.436;6.544;2023-04-20T03:05:19;5.43;;;2.63;;
14116;SDS011;7137;51.436;6.544;2023-04-20T03:08:20;5.57;;;2.33;;
14116;SDS011;7137;51.436;6.544;2023-04-20T03:11:23;6.13;;;2.63;;
14116;SDS011;7137;51.436;6.544;2023-04-20T03:14:25;6.00;;;2.73;;
14116;SDS011;7137;51.436;6.544;2023-04-20T03:17:26;5.00;;;2.57;;
14116;SDS011;7137;51.436;6.544;2023-04-20T03:20:28;6.60;;;2.97;;
14116;SDS011;7137;51.436;6.544;2023-04-20T03:23:29;6.20;;;3.07;;
14116;SDS011;7137;51.436;6.544;2023-04-20T03:26:32;5.87;;;2.90;;
14116;SDS011;7137;51.436;6.544;2023-04-20T03:29:35;4.63;;;2.53;;
14116;SDS011;7137;51.436;6.544;2023-04-20T03:32:36;5.27;;;2.90;;
14116;SDS011;7137;51.436;6.544;2023-04-20T03:35:38;7.40;;;3.20;;
14116;SDS011;7137;51.436;6.544;2023-04-20T03:38:39;6.60;;;3.10;;
14116;SDS011;7137;51.436;6.544;2023-04-20T03:41:42;4.97;;;2.90;;
14116;SDS011;7137;51.436;6.544;2023-04-20T03:44:44;4.70;;;2.90;;
14116;SDS011;7137;51.436;6.544;2023-04-20T03:47:45;4.80;;;2.90;;
14116;SDS011;7137;51.436;6.544;2023-04-20T03:50:47;5.70;;;3.20;;
14116;SDS011;7137;51.436;6.544;2023-04-20T03:53:48;6.10;;;3.00;;
14116;SDS011;7137;51.436;6.544;2023-04-20T03:56:52;6.90;;;3.13;;
14116;SDS011;7137;51.436;6.544;2023-04-20T03:59:53;5.57;;;3.30;;
14116;SDS011;7137;51.436;6.544;2023-04-20T04:02:55;8.47;;;2.97;;
14116;SDS011;7137;51.436;6.544;2023-04-20T04:05:56;9.40;;;3.50;;
14116;SDS011;7137;51.436;6.544;2023-04-20T04:08:58;4.83;;;3.30;;
14116;SDS011;7137;51.436;6.544;2023-04-20T04:12:01;7.60;;;3.40;;
14116;SDS011;7137;51.436;6.544;2023-04-20T04:15:03;5.37;;;3.37;;
14116;SDS011;7137;51.436;6.544;2023-04-20T04:18:06;5.97;;;3.43;;
14116;SDS011;7137;51.436;6.544;2023-04-20T04:21:07;8.33;;;3.53;;
14116;SDS011;7137;51.436;6.544;2023-04-20T04:24:09;7.00;;;3.00;;
14116;SDS011;7137;51.436;6.544;2023-04-20T04:27:13;9.00;;;3.77;;
14116;SDS011;7137;51.436;6.544;2023-04-20T04:30:14;6.60;;;3.47;;
14116;SDS011;7137;51.436;6.544;2023-04-20T04:33:16;7.87;;;3.53;;
14116;SDS011;7137;51.436;6.544;2023-04-20T04:36:19;6.87;;;3.67;;
14116;SDS011;7137;51.436;6.544;2023-04-20T04:39:20;7.47;;;3.73;;
14116;SDS011;7137;51.436;6.544;2023-04-20T04:42:23;5.70;;;3.50;;
14116;SDS011;7137;51.436;6.544;2023-04-20T04:45:27;6.83;;;3.53;;
14116;SDS011;7137;51.436;6.544;2023-04-20T04:48:28;5.30;;;3.23;;
14116;SDS011;7137;51.436;6.544;2023-04-20T04:51:30;6.03;;;3.53;;
14116;SDS011;7137;51.436;6.544;2023-04-20T04:54:32;6.23;;;3.77;;
14116;SDS011;7137;51.436;6.544;2023-04-20T04:57:35;9.80;;;3.60;;
14116;SDS011;7137;51.436;6.544;2023-04-20T05:00:37;6.73;;;3.47;;
14116;SDS011;7137;51.436;6.544;2023-04-20T05:03:39;6.90;;;3.57;;
14116;SDS011;7137;51.436;6.544;2023-04-20T05:06:40;5.87;;;3.90;;
14116;SDS011;7137;51.436;6.544;2023-04-20T05:09:42;7.43;;;4.03;;
14116;SDS011;7137;51.436;6.544;2023-04-20T05:12:45;5.63;;;3.70;;
14116;SDS011;7137;51.436;6.544;2023-04-20T05:15:47;7.93;;;4.17;;
14116;SDS011;7137;51.436;6.544;2023-04-20T05:18:49;7.47;;;3.70;;
14116;SDS011;7137;51.436;6.544;2023-04-20T05:21:50;7.63;;;3.90;;
14116;SDS011;7137;51.436;6.544;2023-04-20T05:24:52;7.53;;;3.87;;
14116;SDS011;7137;51.436;6.544;2023-04-20T05:27:55;6.83;;;3.80;;
14116;SDS011;7137;51.436;6.544;2023-04-20T05:30:57;6.70;;;3.70;;
14116;SDS011;7137;51.436;6.544;2023-04-20T05:33:58;7.37;;;4.20;;
14116;SDS011;7137;51.436;6.544;2023-04-20T05:37:00;7.13;;;3.63;;
14116;SDS011;7137;51.436;6.544;2023-04-20T05:40:05;6.90;;;4.10;;
14116;SDS011;7137;51.436;6.544;2023-04-20T05:43:09;6.30;;;3.93;;
14116;SDS011;7137;51.436;6.544;2023-04-20T05:46:11;6.90;;;4.00;;
14116;SDS011;7137;51.436;6.544;2023-04-20T05:49:12;7.10;;;4.07;;
14116;SDS011;7137;51.436;6.544;2023-04-20T05:52:14;10.63;;;4.37;;
14116;SDS011;7137;51.436;6.544;2023-04-20T05:55:16;7.50;;;3.97;;
14116;SDS011;7137;51.436;6.544;2023-04-20T05:58:19;7.63;;;3.90;;
14116;SDS011;7137;51.436;6.544;2023-04-20T06:01:21;8.43;;;4.23;;
14116;SDS011;7137;51.436;6.544;2023-04-20T06:04:23;7.50;;;3.97;;
14116;SDS011;7137;51.436;6.544;2023-04-20T06:07:24;6.07;;;3.97;;
14116;SDS011;7137;51.436;6.544;2023-04-20T06:10:26;7.03;;;4.40;;
14116;SDS011;7137;51.436;6.544;2023-04-20T06:13:32;7.33;;;4.30;;
14116;SDS011;7137;51.436;6.544;2023-04-20T06:16:34;7.33;;;4.57;;
14116;SDS011;7137;51.436;6.544;2023-04-20T06:19:35;7.33;;;4.33;;
14116;SDS011;7137;51.436;6.544;2023-04-20T06:22:40;8.17;;;4.63;;
14116;SDS011;7137;51.436;6.544;2023-04-20T06:25:43;9.57;;;4.17;;
14116;SDS011;7137;51.436;6.544;2023-04-20T06:28:46;13.47;;;4.63;;
14116;SDS011;7137;51.436;6.544;2023-04-20T06:31:48;8.93;;;4.30;;
14116;SDS011;7137;51.436;6.544;2023-04-20T06:34:49;7.83;;;4.50;;
14116;SDS011;7137;51.436;6.544;2023-04-20T06:37:51;7.20;;;4.53;;
14116;SDS011;7137;51.436;6.544;2023-04-20T06:40:54;8.80;;;4.77;;
14116;SDS011;7137;51.436;6.544;2023-04-20T06:44:02;7.00;;;4.13;;
14116;SDS011;7137;51.436;6.544;2023-04-20T06:47:04;8.23;;;4.60;;
14116;SDS011;7137;51.436;6.544;2023-04-20T06:50:06;5.97;;;4.23;;
14116;SDS011;7137;51.436;6.544;2023-04-20T06:53:09;7.47;;;5.03;;
14116;SDS011;7137;51.436;6.544;2023-04-20T06:56:10;6.77;;;4.53;;
14116;SDS011;7137;51.436;6.544;2023-04-20T06:59:13;6.13;;;4.50;;
14116;SDS011;7137;51.436;6.544;2023-04-20T07:02:17;8.03;;;4.40;;
14116;SDS011;7137;51.436;6.544;2023-04-20T07:05:19;7.27;;;4.60;;
14116;SDS011;7137;51.436;6.544;2023-04-20T07:08:20;7.30;;;4.60;;
14116;SDS011;7137;51.436;6.544;2023-04-20T07:11:22;8.33;;;4.30;;
14116;SDS011;7137;51.436;6.544;2023-04-20T07:14:26;6.93;;;4.60;;
14116;SDS011;7137;51.436;6.544;2023-04-20T07:17:27;9.17;;;4.90;;
14116;SDS011;7137;51.436;6.544;2023-04-20T07:20:29;5.27;;;3.07;;
14116;SDS011;7137;51.436;6.544;2023-04-20T07:23:30;9.63;;;6.00;;
14116;SDS011;7137;51.436;6.544;2023-04-20T07:26:32;7.83;;;5.37;;
14116;SDS011;7137;51.436;6.544;2023-04-20T07:29:35;8.33;;;5.60;;
14116;SDS011;7137;51.436;6.544;2023-04-20T07:32:37;7.20;;;5.60;;
14116;SDS011;7137;51.436;6.544;2023-04-20T07:35:39;8.60;;;6.17;;
14116;SDS011;7137;51.436;6.544;2023-04-20T07:38:41;7.80;;;5.70;;
14116;SDS011;7137;51.436;6.544;2023-04-20T07:41:42;9.47;;;5.73;;
14116;SDS011;7137;51.436;6.544;2023-04-20T07:44:45;9.83;;;5.53;;
14116;SDS011;7137;51.436;6.544;2023-04-20T07:47:47;9.00;;;6.40;;
14116;SDS011;7137;51.436;6.544;2023-04-20T07:50:50;9.30;;;5.47;;
14116;SDS011;7137;51.436;6.544;2023-04-20T07:53:52;7.07;;;5.50;;
14116;SDS011;7137;51.436;6.544;2023-04-20T07:56:53;9.87;;;8.17;;
14116;SDS011;7137;51.436;6.544;2023-04-20T07:59:56;10.27;;;7.57;;
14116;SDS011;7137;51.436;6.544;2023-04-20T08:02:58;9.63;;;8.63;;
14116;SDS011;7137;51.436;6.544;2023-04-20T08:05:59;12.10;;;8.00;;
14116;SDS011;7137;51.436;6.544;2023-04-20T08:09:01;8.20;;;6.03;;
14116;SDS011;7137;51.436;6.544;2023-04-20T08:12:03;8.90;;;7.53;;
14116;SDS011;7137;51.436;6.544;2023-04-20T08:15:08;8.30;;;7.10;;
14116;SDS011;7137;51.436;6.544;2023-04-20T08:18:10;10.43;;;8.03;;
14116;SDS011;7137;51.436;6.544;2023-04-20T08:21:11;9.87;;;7.30;;
14116;SDS011;7137;51.436;6.544;2023-04-20T08:24:13;8.77;;;7.00;;
14116;SDS011;7137;51.436;6.544;2023-04-20T08:27:15;8.20;;;6.53;;
14116;SDS011;7137;51.436;6.544;2023-04-20T08:30:17;8.13;;;6.57;;
14116;SDS011;7137;51.436;6.544;2023-04-20T08:33:19;8.60;;;6.60;;
14116;SDS011;7137;51.436;6.544;2023-04-20T08:36:21;9.60;;;6.03;;
14116;SDS011;7137;51.436;6.544;2023-04-20T08:39:23;7.80;;;5.73;;
14116;SDS011;7137;51.436;6.544;2023-04-20T08:42:24;7.73;;;6.13;;
14116;SDS011;7137;51.436;6.544;2023-04-20T08:45:27;9.50;;;5.87;;
14116;SDS011;7137;51.436;6.544;2023-04-20T08:48:31;8.00;;;6.17;;
14116;SDS011;7137;51.436;6.544;2023-04-20T08:51:35;7.53;;;6.73;;
14116;SDS011;7137;51.436;6.544;2023-04-20T08:54:37;7.57;;;6.17;;
14116;SDS011;7137;51.436;6.544;2023-04-20T08:57:39;8.93;;;6.17;;
14116;SDS011;7137;51.436;6.544;2023-04-20T09:00:46;9.60;;;6.70;;
14116;SDS011;7137;51.436;6.544;2023-04-20T09:03:47;8.43;;;6.87;;
14116;SDS011;7137;51.436;6.544;2023-04-20T09:06:50;7.40;;;6.50;;
14116;SDS011;7137;51.436;6.544;2023-04-20T09:09:52;8.13;;;6.33;;
14116;SDS011;7137;51.436;6.544;2023-04-20T09:12:55;7.37;;;5.57;;
14116;SDS011;7137;51.436;6.544;2023-04-20T09:16:07;8.20;;;6.17;;
14116;SDS011;7137;51.436;6.544;2023-04-20T09:19:10;9.30;;;6.57;;
14116;SDS011;7137;51.436;6.544;2023-04-20T09:22:13;6.57;;;5.60;;
14116;SDS011;7137;51.436;6.544;2023-04-20T09:25:16;8.37;;;5.87;;
14116;SDS011;7137;51.436;6.544;2023-04-20T09:28:19;7.63;;;5.90;;
14116;SDS011;7137;51.436;6.544;2023-04-20T09:31:22;7.80;;;6.27;;
14116;SDS011;7137;51.436;6.544;2023-04-20T09:34:24;9.20;;;5.43;;
14116;SDS011;7137;51.436;6.544;2023-04-20T09:37:26;8.53;;;5.30;;
14116;SDS011;7137;51.436;6.544;2023-04-20T09:40:27;8.37;;;5.57;;
14116;SDS011;7137;51.436;6.544;2023-04-20T09:43:29;7.37;;;5.93;;
14116;SDS011;7137;51.436;6.544;2023-04-20T09:46:34;9.33;;;5.60;;
14116;SDS011;7137;51.436;6.544;2023-04-20T09:49:36;11.87;;;6.90;;
14116;SDS011;7137;51.436;6.544;2023-04-20T09:52:38;7.67;;;5.77;;
14116;SDS011;7137;51.436;6.544;2023-04-20T09:55:44;8.57;;;6.30;;
14116;SDS011;7137;51.436;6.544;2023-04-20T09:58:46;6.97;;;4.93;;
14116;SDS011;7137;51.436;6.544;2023-04-20T10:01:49;8.93;;;6.30;;
14116;SDS011;7137;51.436;6.544;2023-04-20T10:04:51;11.93;;;8.50;;
14116;SDS011;7137;51.436;6.544;2023-04-20T10:07:57;12.20;;;10.73;;
14116;SDS011;7137;51.436;6.544;2023-04-20T10:11:00;13.97;;;10.70;;
14116;SDS011;7137;51.436;6.544;2023-04-20T10:14:12;11.83;;;10.00;;
14116;SDS011;7137;51.436;6.544;2023-04-20T10:17:17;8.43;;;6.80;;
14116;SDS011;7137;51.436;6.544;2023-04-20T10:20:30;11.47;;;9.13;;
14116;SDS011;7137;51.436;6.544;2023-04-20T10:23:31;10.50;;;8.97;;
14116;SDS011;7137;51.436;6.544;2023-04-20T10:26:36;9.53;;;7.70;;
14116;SDS011;7137;51.436;6.544;2023-04-20T10:29:38;11.87;;;10.37;;
14116;SDS011;7137;51.436;6.544;2023-04-20T10:32:42;11.97;;;10.47;;
14116;SDS011;7137;51.436;6.544;2023-04-20T10:35:45;10.57;;;9.47;;
14116;SDS011;7137;51.436;6.544;2023-04-20T10:38:48;9.27;;;8.37;;
14116;SDS011;7137;51.436;6.544;2023-04-20T10:41:51;8.83;;;7.93;;
14116;SDS011;7137;51.436;6.544;2023-04-20T10:44:54;8.83;;;7.47;;
14116;SDS011;7137;51.436;6.544;2023-04-20T10:48:04;8.83;;;7.93;;
14116;SDS011;7137;51.436;6.544;2023-04-20T10:51:07;9.57;;;7.00;;
14116;SDS011;7137;51.436;6.544;2023-04-20T10:54:09;8.37;;;7.20;;
14116;SDS011;7137;51.436;6.544;2023-04-20T10:57:14;8.20;;;7.10;;
14116;SDS011;7137;51.436;6.544;2023-04-20T11:00:16;8.23;;;7.33;;
14116;SDS011;7137;51.436;6.544;2023-04-20T11:03:22;8.23;;;7.33;;
14116;SDS011;7137;51.436;6.544;2023-04-20T11:06:23;7.57;;;6.77;;
14116;SDS011;7137;51.436;6.544;2023-04-20T11:09:25;5.90;;;5.23;;
14116;SDS011;7137;51.436;6.544;2023-04-20T11:12:27;5.17;;;4.20;;
14116;SDS011;7137;51.436;6.544;2023-04-20T11:15:38;6.17;;;3.90;;
14116;SDS011;7137;51.436;6.544;2023-04-20T11:18:49;5.20;;;4.10;;
14116;SDS011;7137;51.436;6.544;2023-04-20T11:21:52;4.53;;;3.60;;
14116;SDS011;7137;51.436;6.544;2023-04-20T11:25:01;5.80;;;3.60;;
14116;SDS011;7137;51.436;6.544;2023-04-20T11:28:05;5.70;;;3.67;;
14116;SDS011;7137;51.436;6.544;2023-04-20T11:31:15;4.80;;;3.73;;
14116;SDS011;7137;51.436;6.544;2023-04-20T11:34:18;4.17;;;3.20;;
14116;SDS011;7137;51.436;6.544;2023-04-20T11:37:19;4.70;;;3.20;;
14116;SDS011;7137;51.436;6.544;2023-04-20T11:40:21;5.07;;;3.57;;
14116;SDS011;7137;51.436;6.544;2023-04-20T11:43:23;5.27;;;3.90;;
14116;SDS011;7137;51.436;6.544;2023-04-20T11:46:25;4.40;;;3.70;;
14116;SDS011;7137;51.436;6.544;2023-04-20T11:49:28;5.77;;;4.20;;
14116;SDS011;7137;51.436;6.544;2023-04-20T11:52:29;5.10;;;4.03;;
14116;SDS011;7137;51.436;6.544;2023-04-20T11:55:31;6.27;;;4.00;;
14116;SDS011;7137;51.436;6.544;2023-04-20T11:58:33;4.30;;;3.70;;
14116;SDS011;7137;51.436;6.544;2023-04-20T12:01:35;5.10;;;3.70;;
14116;SDS011;7137;51.436;6.544;2023-04-20T12:04:39;4.57;;;3.57;;
14116;SDS011;7137;51.436;6.544;2023-04-20T12:07:40;5.50;;;3.80;;
14116;SDS011;7137;51.436;6.544;2023-04-20T12:10:42;4.27;;;3.23;;
14116;SDS011;7137;51.436;6.544;2023-04-20T12:13:44;4.77;;;3.40;;
14116;SDS011;7137;51.436;6.544;2023-04-20T12:16:45;5.40;;;3.57;;
14116;SDS011;7137;51.436;6.544;2023-04-20T12:19:48;4.83;;;3.30;;
14116;SDS011;7137;51.436;6.544;2023-04-20T12:22:50;4.97;;;3.40;;
14116;SDS011;7137;51.436;6.544;2023-04-20T12:25:51;4.83;;;3.40;;
14116;SDS011;7137;51.436;6.544;2023-04-20T12:28:53;5.20;;;3.50;;
14116;SDS011;7137;51.436;6.544;2023-04-20T12:31:54;5.43;;;3.37;;
14116;SDS011;7137;51.436;6.544;2023-04-20T12:34:57;6.27;;;3.83;;
14116;SDS011;7137;51.436;6.544;2023-04-20T12:37:59;5.10;;;3.67;;
14116;SDS011;7137;51.436;6.544;2023-04-20T12:41:00;5.00;;;3.60;;
14116;SDS011;7137;51.436;6.544;2023-04-20T12:44:03;4.67;;;3.40;;
14116;SDS011;7137;51.436;6.544;2023-04-20T12:47:05;4.40;;;3.00;;
14116;SDS011;7137;51.436;6.544;2023-04-20T12:50:08;4.77;;;3.70;;
14116;SDS011;7137;51.436;6.544;2023-04-20T12:53:10;5.17;;;3.70;;
14116;SDS011;7137;51.436;6.544;2023-04-20T12:56:13;7.50;;;3.80;;
14116;SDS011;7137;51.436;6.544;2023-04-20T12:59:14;6.23;;;3.40;;
14116;SDS011;7137;51.436;6.544;2023-04-20T13:02:16;11.53;;;4.27;;
14116;SDS011;7137;51.436;6.544;2023-04-20T13:05:20;6.50;;;3.60;;
14116;SDS011;7137;51.436;6.544;2023-04-20T13:08:21;4.70;;;3.30;;
14116;SDS011;7137;51.436;6.544;2023-04-20T13:11:23;5.50;;;3.40;;
14116;SDS011;7137;51.436;6.544;2023-04-20T13:14:24;4.50;;;3.40;;
14116;SDS011;7137;51.436;6.544;2023-04-20T13:17:27;4.90;;;3.30;;
14116;SDS011;7137;51.436;6.544;2023-04-20T13:20:30;5.77;;;3.80;;
14116;SDS011;7137;51.436;6.544;2023-04-20T13:23:32;5.47;;;3.77;;
14116;SDS011;7137;51.436;6.544;2023-04-20T13:26:33;5.33;;;3.97;;
14116;SDS011;7137;51.436;6.544;2023-04-20T13:29:35;5.20;;;4.00;;
14116;SDS011;7137;51.436;6.544;2023-04-20T13:32:37;4.83;;;3.83;;
14116;SDS011;7137;51.436;6.544;2023-04-20T13:35:40;5.57;;;4.30;;
14116;SDS011;7137;51.436;6.544;2023-04-20T13:38:42;5.73;;;4.30;;
14116;SDS011;7137;51.436;6.544;2023-04-20T13:41:43;6.40;;;4.43;;
14116;SDS011;7137;51.436;6.544;2023-04-20T13:44:45;7.03;;;4.20;;
14116;SDS011;7137;51.436;6.544;2023-04-20T13:47:48;6.43;;;4.73;;
14116;SDS011;7137;51.436;6.544;2023-04-20T13:50:51;5.20;;;4.30;;
14116;SDS011;7137;51.436;6.544;2023-04-20T13:53:53;5.27;;;4.30;;
14116;SDS011;7137;51.436;6.544;2023-04-20T13:56:55;5.40;;;4.20;;
14116;SDS011;7137;51.436;6.544;2023-04-20T13:59:57;5.43;;;4.33;;
14116;SDS011;7137;51.436;6.544;2023-04-20T14:02:59;7.17;;;4.90;;
14116;SDS011;7137;51.436;6.544;2023-04-20T14:06:03;6.40;;;4.70;;
14116;SDS011;7137;51.436;6.544;2023-04-20T14:09:05;6.73;;;4.80;;
14116;SDS011;7137;51.436;6.544;2023-04-20T14:12:07;6.33;;;4.73;;
14116;SDS011;7137;51.436;6.544;2023-04-20T14:15:08;5.50;;;4.30;;
14116;SDS011;7137;51.436;6.544;2023-04-20T14:18:12;5.83;;;4.50;;
14116;SDS011;7137;51.436;6.544;2023-04-20T14:21:15;7.20;;;4.97;;
14116;SDS011;7137;51.436;6.544;2023-04-20T14:24:16;7.83;;;5.30;;
14116;SDS011;7137;51.436;6.544;2023-04-20T14:27:18;7.23;;;5.43;;
14116;SDS011;7137;51.436;6.544;2023-04-20T14:30:20;7.63;;;5.20;;
14116;SDS011;7137;51.436;6.544;2023-04-20T14:33:21;6.77;;;5.10;;
14116;SDS011;7137;51.436;6.544;2023-04-20T14:36:24;6.47;;;5.20;;
14116;SDS011;7137;51.436;6.544;2023-04-20T14:39:26;7.03;;;5.30;;
14116;SDS011;7137;51.436;6.544;2023-04-20T14:42:27;6.97;;;4.97;;
14116;SDS011;7137;51.436;6.544;2023-04-20T14:45:29;6.83;;;4.83;;
14116;SDS011;7137;51.436;6.544;2023-04-20T14:48:30;6.47;;;4.63;;
14116;SDS011;7137;51.436;6.544;2023-04-20T14:51:33;6.53;;;5.43;;
14116;SDS011;7137;51.436;6.544;2023-04-20T14:54:35;7.73;;;5.33;;
14116;SDS011;7137;51.436;6.544;2023-04-20T14:57:37;5.77;;;5.07;;
14116;SDS011;7137;51.436;6.544;2023-04-20T15:00:39;6.80;;;5.83;;
14116;SDS011;7137;51.436;6.544;2023-04-20T15:03:41;6.43;;;4.90;;
14116;SDS011;7137;51.436;6.544;2023-04-20T15:06:47;7.10;;;5.77;;
14116;SDS011;7137;51.436;6.544;2023-04-20T15:09:49;7.00;;;5.57;;
14116;SDS011;7137;51.436;6.544;2023-04-20T15:12:50;8.83;;;5.80;;
14116;SDS011;7137;51.436;6.544;2023-04-20T15:15:52;9.40;;;5.90;;
14116;SDS011;7137;51.436;6.544;2023-04-20T15:18:53;9.57;;;5.70;;
14116;SDS011;7137;51.436;6.544;2023-04-20T15:21:56;9.30;;;5.90;;
14116;SDS011;7137;51.436;6.544;2023-04-20T15:24:58;6.70;;;5.73;;
14116;SDS011;7137;51.436;6.544;2023-04-20T15:28:00;8.37;;;5.97;;
14116;SDS011;7137;51.436;6.544;2023-04-20T15:31:01;6.93;;;5.80;;
14116;SDS011;7137;51.436;6.544;2023-04-20T15:34:03;7.37;;;6.37;;
14116;SDS011;7137;51.436;6.544;2023-04-20T15:37:06;7.90;;;6.33;;
14116;SDS011;7137;51.436;6.544;2023-04-20T15:40:07;7.33;;;6.17;;
14116;SDS011;7137;51.436;6.544;2023-04-20T15:43:09;7.67;;;6.37;;
14116;SDS011;7137;51.436;6.544;2023-04-20T15:46:11;8.10;;;7.00;;
14116;SDS011;7137;51.436;6.544;2023-04-20T15:49:12;9.27;;;7.07;;
14116;SDS011;7137;51.436;6.544;2023-04-20T15:52:15;9.13;;;6.80;;
14116;SDS011;7137;51.436;6.544;2023-04-20T15:55:17;6.97;;;6.07;;
14116;SDS011;7137;51.436;6.544;2023-04-20T15:58:18;8.13;;;6.20;;
14116;SDS011;7137;51.436;6.544;2023-04-20T16:01:20;8.07;;;6.37;;
14116;SDS011;7137;51.436;6.544;2023-04-20T16:04:22;7.67;;;5.60;;
14116;SDS011;7137;51.436;6.544;2023-04-20T16:07:25;7.70;;;6.50;;
14116;SDS011;7137;51.436;6.544;2023-04-20T16:10:26;7.27;;;5.80;;
14116;SDS011;7137;51.436;6.544;2023-04-20T16:13:28;7.70;;;6.40;;
14116;SDS011;7137;51.436;6.544;2023-04-20T16:16:30;7.00;;;4.80;;
14116;SDS011;7137;51.436;6.544;2023-04-20T16:19:31;6.43;;;4.20;;
14116;SDS011;7137;51.436;6.544;2023-04-20T16:22:35;5.60;;;4.20;;
14116;SDS011;7137;51.436;6.544;2023-04-20T16:25:36;8.10;;;4.67;;
14116;SDS011;7137;51.436;6.544;2023-04-20T16:28:38;6.40;;;5.10;;
14116;SDS011;7137;51.436;6.544;2023-04-20T16:31:40;6.70;;;5.40;;
14116;SDS011;7137;51.436;6.544;2023-04-20T16:34:41;7.63;;;5.27;;
14116;SDS011;7137;51.436;6.544;2023-04-20T16:37:45;7.13;;;4.83;;
14116;SDS011;7137;51.436;6.544;2023-04-20T16:40:46;6.63;;;5.17;;
14116;SDS011;7137;51.436;6.544;2023-04-20T16:43:48;6.00;;;4.53;;
14116;SDS011;7137;51.436;6.544;2023-04-20T16:46:49;5.90;;;4.40;;
14116;SDS011;7137;51.436;6.544;2023-04-20T16:49:51;6.10;;;4.47;;
14116;SDS011;7137;51.436;6.544;2023-04-20T16:52:54;5.10;;;3.90;;
14116;SDS011;7137;51.436;6.544;2023-04-20T16:55:56;6.30;;;4.37;;
14116;SDS011;7137;51.436;6.544;2023-04-20T16:58:58;7.37;;;4.33;;
14116;SDS011;7137;51.436;6.544;2023-04-20T17:02:00;6.60;;;4.97;;
14116;SDS011;7137;51.436;6.544;2023-04-20T17:05:01;7.07;;;5.10;;
14116;SDS011;7137;51.436;6.544;2023-04-20T17:08:05;7.00;;;5.30;;
14116;SDS011;7137;51.436;6.544;2023-04-20T17:11:06;6.63;;;5.07;;
14116;SDS011;7137;51.436;6.544;2023-04-20T17:14:08;6.40;;;5.10;;
14116;SDS011;7137;51.436;6.544;2023-04-20T17:17:09;7.10;;;5.43;;
14116;SDS011;7137;51.436;6.544;2023-04-20T17:20:11;6.90;;;5.33;;
14116;SDS011;7137;51.436;6.544;2023-04-20T17:23:15;7.43;;;5.77;;
14116;SDS011;7137;51.436;6.544;2023-04-20T17:26:16;6.90;;;5.23;;
14116;SDS011;7137;51.436;6.544;2023-04-20T17:29:18;6.30;;;5.00;;
14116;SDS011;7137;51.436;6.544;2023-04-20T17:32:20;6.73;;;5.27;;
14116;SDS011;7137;51.436;6.544;2023-04-20T17:35:22;6.67;;;4.37;;
14116;SDS011;7137;51.436;6.544;2023-04-20T17:38:25;6.00;;;4.83;;
14116;SDS011;7137;51.436;6.544;2023-04-20T17:41:26;6.33;;;4.73;;
14116;SDS011;7137;51.436;6.544;2023-04-20T17:44:28;7.70;;;4.67;;
14116;SDS011;7137;51.436;6.544;2023-04-20T17:47:30;6.13;;;4.60;;
14116;SDS011;7137;51.436;6.544;2023-04-20T17:50:32;5.97;;;4.37;;
14116;SDS011;7137;51.436;6.544;2023-04-20T17:53:35;6.07;;;4.20;;
14116;SDS011;7137;51.436;6.544;2023-04-20T17:56:37;5.53;;;4.33;;
14116;SDS011;7137;51.436;6.544;2023-04-20T17:59:39;7.20;;;4.57;;
14116;SDS011;7137;51.436;6.544;2023-04-20T18:02:41;5.80;;;4.30;;
14116;SDS011;7137;51.436;6.544;2023-04-20T18:05:43;6.50;;;5.07;;
14116;SDS011;7137;51.436;6.544;2023-04-20T18:08:46;6.90;;;5.57;;
14116;SDS011;7137;51.436;6.544;2023-04-20T18:11:48;6.87;;;5.40;;
14116;SDS011;7137;51.436;6.544;2023-04-20T18:14:49;5.90;;;4.50;;
14116;SDS011;7137;51.436;6.544;2023-04-20T18:17:51;6.03;;;3.87;;
14116;SDS011;7137;51.436;6.544;2023-04-20T18:20:52;6.20;;;4.70;;
14116;SDS011;7137;51.436;6.544;2023-04-20T18:23:55;5.87;;;4.67;;
14116;SDS011;7137;51.436;6.544;2023-04-20T18:26:57;5.97;;;4.10;;
14116;SDS011;7137;51.436;6.544;2023-04-20T18:29:59;6.67;;;4.13;;
14116;SDS011;7137;51.436;6.544;2023-04-20T18:33:01;6.43;;;4.40;;
14116;SDS011;7137;51.436;6.544;2023-04-20T18:36:03;5.83;;;4.80;;
14116;SDS011;7137;51.436;6.544;2023-04-20T18:39:06;7.17;;;5.03;;